KDAB/DAB METAR and TAF weather

Enter ICAO airport designator
Station Type Date Time Source
KDAB METAR 2020/07/11 17:53 UTC NOAA

KDAB 111753Z 06007KT 10SM -RA SCT034TCU SCT050 SCT250 32/26 A2989 RMK AO2 RAB52 SLP120 TCU OHD-S-W-NW CB DSNT S-W-NW P0000 60000 T03170256 10333 20250 56009 $


Station Type Date Time Source
KDAB Decoded METAR 2020/07/11 17:53 UTC NOAA

DAYTONA BEACH INTERNATIONAL, FL, United States (KDAB) 29-10N 81-04W 9M
Jul 11, 2020 - 01:53 PM EDT / 2020.07.11 1753 UTC
Wind: from the ENE (060 degrees) at 8 MPH (7 KT):0
Visibility: 10 mile(s):0
Sky conditions: partly cloudy
Weather: light rain; Cumulonimbus clouds, towering cumulus clouds observed
Precipitation last hour: A trace
Temperature: 89.1 F (31.7 C)
Heat index: 103.3 F (39.6 C):1
Dew Point: 78.1 F (25.6 C)
Relative Humidity: 70%
Pressure (altimeter): 29.89 in. Hg (1012 hPa)
Pressure tendency: 0.03 inches (0.9 hPa) lower than three hours ago
ob: KDAB 111753Z 06007KT 10SM -RA SCT034TCU SCT050 SCT250 32/26 A2989 RMK AO2 RAB52 SLP120 TCU OHD-S-W-NW CB DSNT S-W-NW P0000 60000 T03170256 10333 20250 56009
cycle: 18

Station Type Date Time Source
KDAB TAF 2020/07/11 18:44 UTC NOAA

TAF KDAB 111739Z 1118/1218 31007KT P6SM VCTS SCT035CB BKN060
TEMPO 1119/1122 VRB13KT 3SM TSRA BKN030CB
FM112300 26008KT P6SM VCSH SCT040 SCT100
FM120100 VRB03KT P6SM FEW030 SCT100
FM121500 25007KT P6SM SCT035 BKN250

Example: see airport list